Time;durP1;ratioP1;P1;durP2;ratioP2;P2;SDS_P1;SDS_P2;PMS_P1;PMS_P2;Temp;Humidity;BMP_temperature;BMP_pressure;BME280_temperature;BME280_humidity;BME280_pressure;Samples;Min_cycle;Max_cycle;Signal;HPM_P1;HPM_P2
2024/02/12 00:01:03;;;;;;;7.17;3.33;;;8.70;99.90;;;;;;5063285;28;20482;-84
2024/02/12 00:03:31;;;;;;;4.10;3.13;;;8.60;99.90;;;;;;5063516;28;20451;-84
2024/02/12 00:05:58;;;;;;;5.33;4.17;;;8.60;99.90;;;;;;5062130;28;20469;-83
2024/02/12 00:08:25;;;;;;;7.83;4.80;;;8.60;99.90;;;;;;5062129;28;20460;-82
2024/02/12 00:10:54;;;;;;;7.30;5.10;;;8.50;99.90;;;;;;5057468;28;20478;-84
2024/02/12 00:13:21;;;;;;;6.10;4.53;;;8.50;99.90;;;;;;5057067;28;20483;-83
2024/02/12 00:15:48;;;;;;;6.07;4.40;;;8.40;99.90;;;;;;5060605;28;20818;-83
2024/02/12 00:18:16;;;;;;;9.03;4.10;;;8.40;99.90;;;;;;5059268;28;20446;-84
2024/02/12 00:20:43;;;;;;;6.00;4.00;;;8.40;99.90;;;;;;5059290;28;20501;-85
2024/02/12 00:23:10;;;;;;;5.97;4.27;;;8.40;99.90;;;;;;5059859;28;20482;-83
2024/02/12 00:25:37;;;;;;;8.53;4.77;;;8.40;99.90;;;;;;5060013;28;20482;-84
2024/02/12 00:28:07;;;;;;;6.27;4.90;;;8.30;99.90;;;;;;5061312;28;20463;-85
2024/02/12 00:30:35;;;;;;;6.23;4.30;;;8.30;99.90;;;;;;5056691;28;20472;-83
2024/02/12 00:33:04;;;;;;;6.97;4.97;;;8.30;99.90;;;;;;5061719;28;20502;-84
2024/02/12 00:35:32;;;;;;;8.77;5.17;;;8.30;99.90;;;;;;5064775;28;20448;-86
2024/02/12 00:38:00;;;;;;;8.73;5.70;;;9.10;99.90;;;;;;5052549;28;20454;-86
2024/02/12 00:40:26;;;;;;;7.70;4.77;;;8.40;99.90;;;;;;5067066;28;20504;-83
2024/02/12 00:42:58;;;;;;;7.10;5.53;;;8.40;99.90;;;;;;5059860;28;20532;-84
2024/02/12 00:45:25;;;;;;;9.90;5.77;;;8.50;99.90;;;;;;5061892;28;20441;-83
2024/02/12 00:47:56;;;;;;;12.63;6.57;;;8.50;99.90;;;;;;5056393;28;20487;-85
2024/02/12 00:50:23;;;;;;;10.17;7.07;;;8.50;99.90;;;;;;5059443;28;20475;-84
2024/02/12 00:52:52;;;;;;;11.57;6.47;;;9.40;99.90;;;;;;5058571;28;20510;-84
2024/02/12 00:55:20;;;;;;;9.37;6.27;;;8.50;99.90;;;;;;5060500;28;20469;-85
2024/02/12 00:57:47;;;;;;;8.67;6.13;;;8.60;99.90;;;;;;5063502;28;20459;-84
2024/02/12 01:00:15;;;;;;;8.13;6.60;;;8.60;99.90;;;;;;5061334;28;21038;-84
2024/02/12 01:02:42;;;;;;;12.20;8.40;;;8.60;99.90;;;;;;5064137;28;20461;-82
2024/02/12 01:05:10;;;;;;;12.53;7.17;;;8.60;99.90;;;;;;5058662;28;21038;-84
2024/02/12 01:07:37;;;;;;;14.43;7.57;;;8.50;99.90;;;;;;5059823;28;20488;-84
2024/02/12 01:10:06;;;;;;;11.80;8.40;;;8.60;99.90;;;;;;5061833;28;20483;-84
2024/02/12 01:12:33;;;;;;;11.63;7.50;;;8.60;99.90;;;;;;5050837;28;20989;-85
2024/02/12 01:15:00;;;;;;;9.30;6.07;;;8.70;99.90;;;;;;5054683;28;20488;-84
2024/02/12 01:17:29;;;;;;;11.53;8.00;;;8.70;99.90;;;;;;5067554;28;20475;-84
2024/02/12 01:19:56;;;;;;;13.20;7.20;;;8.80;99.90;;;;;;5063805;28;20476;-85
2024/02/12 01:22:23;;;;;;;10.97;6.30;;;8.70;99.90;;;;;;5063513;28;20463;-86
2024/02/12 01:24:50;;;;;;;12.47;7.47;;;8.80;99.90;;;;;;5064809;28;20432;-85
2024/02/12 01:27:19;;;;;;;9.57;6.87;;;8.80;99.90;;;;;;5063711;28;20456;-84
2024/02/12 01:29:47;;;;;;;10.27;7.87;;;8.80;99.90;;;;;;5066290;28;20431;-84
2024/02/12 01:32:14;;;;;;;10.50;8.50;;;8.70;99.90;;;;;;5061548;28;20451;-83
2024/02/12 01:34:43;;;;;;;9.50;6.37;;;8.80;99.90;;;;;;5062279;28;21231;-83
2024/02/12 01:37:10;;;;;;;10.83;7.10;;;8.80;99.90;;;;;;5059142;28;20461;-85
2024/02/12 01:39:37;;;;;;;13.97;7.63;;;8.70;99.90;;;;;;5059629;28;20463;-86
2024/02/12 01:42:12;;;;;;;9.37;6.90;;;8.80;99.90;;;;;;5067597;28;20447;-84
2024/02/12 01:44:49;;;;;;;12.00;7.63;;;8.80;99.90;;;;;;5059317;28;20493;-85
2024/02/12 01:47:16;;;;;;;19.20;9.13;;;8.80;99.90;;;;;;5056046;28;20470;-84
2024/02/12 01:49:43;;;;;;;12.77;8.60;;;8.90;99.90;;;;;;5058899;28;20518;-85
2024/02/12 01:52:13;;;;;;;13.27;8.93;;;8.90;99.90;;;;;;5058312;28;20439;-86
2024/02/12 01:54:40;;;;;;;12.90;7.70;;;8.90;99.90;;;;;;5058398;28;20561;-85
2024/02/12 01:57:09;;;;;;;14.13;8.73;;;8.90;99.90;;;;;;5064922;28;20486;-84
2024/02/12 01:59:39;;;;;;;8.80;6.87;;;8.90;99.90;;;;;;5063292;28;20461;-85
2024/02/12 02:02:09;;;;;;;12.80;8.20;;;8.90;99.90;;;;;;5065121;28;20459;-85
2024/02/12 02:04:37;;;;;;;10.90;7.87;;;9.00;99.90;;;;;;5062139;28;20819;-86
2024/02/12 02:07:06;;;;;;;15.73;8.40;;;9.00;99.90;;;;;;5062360;28;20538;-84
2024/02/12 02:09:33;;;;;;;12.40;8.67;;;9.00;99.90;;;;;;5065570;28;20470;-83
2024/02/12 02:12:01;;;;;;;12.27;8.37;;;9.00;99.90;;;;;;5062539;28;20493;-85
2024/02/12 02:14:28;;;;;;;13.60;8.37;;;9.10;99.90;;;;;;5060999;28;20480;-83
2024/02/12 02:16:55;;;;;;;15.50;8.93;;;9.00;99.90;;;;;;5061961;28;20447;-84
2024/02/12 02:19:26;;;;;;;13.20;8.97;;;9.10;99.90;;;;;;5063985;28;20466;-85
2024/02/12 02:21:53;;;;;;;12.00;9.03;;;9.10;99.90;;;;;;5063274;28;20463;-84
2024/02/12 02:24:21;;;;;;;11.60;8.57;;;9.10;99.90;;;;;;5067605;28;20528;-83
2024/02/12 02:26:48;;;;;;;14.07;9.30;;;9.00;99.90;;;;;;5066135;28;20481;-84
2024/02/12 02:29:15;;;;;;;15.23;9.90;;;9.10;99.90;;;;;;5064236;28;20545;-85
2024/02/12 02:31:42;;;;;;;14.97;9.50;;;9.10;99.90;;;;;;5063841;28;20910;-85
2024/02/12 02:34:08;;;;;;;18.47;11.80;;;9.10;99.90;;;;;;5060849;28;21219;-84
2024/02/12 02:36:36;;;;;;;20.50;11.40;;;9.10;99.90;;;;;;5063296;28;20539;-85
2024/02/12 02:39:03;;;;;;;22.07;14.13;;;9.10;99.90;;;;;;5065322;28;21325;-83
2024/02/12 02:41:32;;;;;;;25.97;14.23;;;9.00;99.90;;;;;;5061543;28;20501;-83
2024/02/12 02:43:59;;;;;;;24.00;15.23;;;9.10;99.90;;;;;;5064315;28;20453;-85
2024/02/12 02:46:27;;;;;;;25.87;15.40;;;9.00;99.90;;;;;;5060726;28;20511;-83
2024/02/12 02:48:55;;;;;;;23.20;14.63;;;9.00;99.90;;;;;;5064240;28;20829;-84
2024/02/12 02:51:26;;;;;;;20.43;13.80;;;9.00;99.90;;;;;;5068798;28;20482;-83
2024/02/12 02:53:54;;;;;;;28.60;19.67;;;9.00;99.90;;;;;;5067511;28;20493;-84
2024/02/12 02:56:22;;;;;;;24.20;14.73;;;8.90;99.90;;;;;;5068518;28;20486;-84
2024/02/12 02:58:51;;;;;;;27.07;14.40;;;8.90;99.90;;;;;;5068527;28;20452;-84
2024/02/12 03:01:19;;;;;;;24.50;15.50;;;9.00;99.90;;;;;;5063823;28;20485;-84
2024/02/12 03:03:46;;;;;;;24.73;15.00;;;9.00;99.90;;;;;;5067556;28;20490;-83
2024/02/12 03:06:13;;;;;;;22.07;15.43;;;9.00;99.90;;;;;;5066806;28;20463;-85
2024/02/12 03:08:40;;;;;;;19.90;13.17;;;9.00;99.90;;;;;;5067033;28;20459;-84
2024/02/12 03:11:07;;;;;;;21.73;14.90;;;9.00;99.90;;;;;;5067960;28;20482;-85
2024/02/12 03:13:36;;;;;;;21.93;14.77;;;9.00;99.90;;;;;;5065937;28;20569;-85
2024/02/12 03:16:05;;;;;;;22.00;15.20;;;9.00;99.90;;;;;;5067025;28;20462;-85
2024/02/12 03:18:32;;;;;;;21.00;14.47;;;9.00;99.90;;;;;;5067713;28;20526;-84
2024/02/12 03:20:59;;;;;;;25.03;14.10;;;9.10;99.90;;;;;;5064278;28;20505;-85
2024/02/12 03:23:26;;;;;;;25.80;15.23;;;8.90;99.90;;;;;;5066831;28;20469;-84
2024/02/12 03:25:52;;;;;;;27.27;16.97;;;8.90;99.90;;;;;;5066711;28;20464;-85
2024/02/12 03:28:19;;;;;;;22.10;16.00;;;8.90;99.90;;;;;;5068095;28;20844;-85
2024/02/12 03:30:46;;;;;;;26.40;15.63;;;9.00;99.90;;;;;;5068025;28;20474;-86
2024/02/12 03:33:14;;;;;;;21.47;14.67;;;9.00;99.90;;;;;;5068519;28;20894;-84
2024/02/12 03:35:41;;;;;;;23.50;13.77;;;8.90;99.90;;;;;;5066598;28;20515;-85
2024/02/12 03:38:08;;;;;;;25.10;16.70;;;9.00;99.90;;;;;;5068463;28;20448;-84
2024/02/12 03:40:35;;;;;;;29.90;16.10;;;9.00;99.90;;;;;;5067741;28;20494;-84
2024/02/12 03:43:04;;;;;;;28.50;17.67;;;8.90;99.90;;;;;;5068167;28;20487;-85
2024/02/12 03:45:34;;;;;;;25.50;15.37;;;8.90;99.90;;;;;;5066748;28;20470;-84
2024/02/12 03:59:50;;;;;;;26.00;15.80;;;8.90;99.90;;;;;;5070702;28;20450;-85
2024/02/12 04:02:01;;;;;;;25.60;15.90;;;8.90;99.90;;;;;;5061197;28;20503;-83
2024/02/12 04:04:29;;;;;;;26.73;17.63;;;8.90;99.90;;;;;;5062447;28;20447;-84
2024/02/12 04:07:00;;;;;;;29.93;17.27;;;9.00;99.90;;;;;;5065593;28;20453;-84
2024/02/12 04:09:27;;;;;;;28.47;16.83;;;8.90;99.90;;;;;;5065544;28;20463;-85
2024/02/12 04:11:54;;;;;;;33.10;18.37;;;8.90;99.90;;;;;;5061417;28;20528;-85
2024/02/12 04:14:21;;;;;;;30.27;18.60;;;8.90;99.90;;;;;;5056308;28;20490;-84
2024/02/12 04:16:51;;;;;;;28.40;17.30;;;8.90;99.90;;;;;;5060770;28;20515;-83
2024/02/12 04:19:18;;;;;;;27.93;17.17;;;8.90;99.90;;;;;;5058908;28;20450;-84
2024/02/12 04:21:45;;;;;;;33.80;21.37;;;8.90;99.90;;;;;;5063994;28;20504;-86
2024/02/12 04:24:13;;;;;;;33.03;19.27;;;8.90;99.90;;;;;;5066206;28;20483;-83
2024/02/12 04:26:40;;;;;;;35.73;20.70;;;8.90;99.90;;;;;;5050942;28;20527;-84
2024/02/12 04:29:07;;;;;;;29.37;19.40;;;8.80;99.90;;;;;;5067049;28;20463;-83
2024/02/12 04:31:35;;;;;;;36.30;18.70;;;8.80;99.90;;;;;;5062456;28;20480;-84
2024/02/12 04:34:08;;;;;;;30.80;19.33;;;8.90;99.90;;;;;;5067502;28;20483;-85
2024/02/12 04:36:39;;;;;;;35.63;20.57;;;8.80;99.90;;;;;;5063718;28;20455;-83
2024/02/12 04:39:08;;;;;;;35.33;20.00;;;8.70;99.90;;;;;;5065739;28;20469;-85
2024/02/12 04:41:40;;;;;;;38.33;19.80;;;8.60;99.90;;;;;;5065662;28;20926;-84
2024/02/12 04:44:07;;;;;;;38.50;19.20;;;8.50;99.90;;;;;;5067222;28;20450;-85
2024/02/12 04:46:36;;;;;;;30.47;18.77;;;8.50;99.90;;;;;;5062938;28;21149;-84
2024/02/12 04:49:03;;;;;;;31.47;19.10;;;8.50;99.90;;;;;;5066529;28;20462;-84
2024/02/12 04:51:31;;;;;;;35.80;19.07;;;8.60;99.90;;;;;;5067298;28;20505;-85
2024/02/12 04:53:58;;;;;;;29.17;19.77;;;8.50;99.90;;;;;;5068723;28;20514;-85
2024/02/12 04:56:25;;;;;;;33.07;18.60;;;8.60;99.90;;;;;;5068436;28;20465;-84
2024/02/12 04:58:54;;;;;;;24.63;16.07;;;8.50;99.90;;;;;;5064343;28;20849;-85
2024/02/12 05:01:21;;;;;;;29.83;16.37;;;8.60;99.90;;;;;;5060092;28;20483;-85
2024/02/12 05:03:50;;;;;;;28.73;17.47;;;8.70;99.90;;;;;;5061976;28;20477;-85
2024/02/12 05:06:17;;;;;;;24.47;16.10;;;8.70;99.90;;;;;;5064796;28;20444;-84
2024/02/12 05:08:45;;;;;;;23.57;14.37;;;8.70;99.90;;;;;;5075408;28;20494;-85
2024/02/12 05:11:12;;;;;;;25.33;15.73;;;8.70;99.90;;;;;;5072320;28;20477;-85
2024/02/12 05:13:39;;;;;;;22.70;14.90;;;8.70;99.90;;;;;;5061440;28;20460;-85
2024/02/12 05:16:08;;;;;;;22.70;14.50;;;8.70;99.90;;;;;;5048897;28;20514;-85
2024/02/12 05:24:04;;;;;;;31.90;16.57;;;8.30;99.90;;;;;;5061057;28;20494;-84
2024/02/12 05:26:30;;;;;;;29.03;18.07;;;8.20;99.90;;;;;;5055466;28;20533;-85
2024/02/12 05:28:58;;;;;;;31.17;17.00;;;8.10;99.90;;;;;;5063084;28;20518;-84
2024/02/12 05:31:26;;;;;;;31.93;18.80;;;8.20;99.90;;;;;;5063831;28;20467;-85
2024/02/12 05:33:52;;;;;;;29.23;17.90;;;8.20;99.90;;;;;;5061596;28;21110;-84
2024/02/12 05:36:20;;;;;;;31.90;16.80;;;8.20;99.90;;;;;;5061227;28;20505;-81
2024/02/12 05:38:49;;;;;;;24.50;17.67;;;8.30;99.90;;;;;;5063857;28;20530;-86
2024/02/12 05:41:16;;;;;;;33.17;19.80;;;8.40;99.90;;;;;;5058896;28;20518;-84
2024/02/12 05:43:43;;;;;;;29.67;18.03;;;8.30;99.90;;;;;;5066067;28;20459;-84
2024/02/12 05:46:09;;;;;;;29.83;18.10;;;8.40;99.90;;;;;;5056405;28;20535;-84
2024/02/12 05:48:39;;;;;;;30.77;18.57;;;8.40;99.90;;;;;;5064061;28;20534;-83
2024/02/12 05:51:09;;;;;;;35.67;19.40;;;8.40;99.90;;;;;;5063997;28;20470;-85
2024/02/12 05:53:36;;;;;;;28.40;17.00;;;8.40;99.90;;;;;;5064005;28;20542;-84
2024/02/12 05:56:03;;;;;;;33.63;18.90;;;8.20;99.90;;;;;;5054655;28;20498;-82
2024/02/12 05:58:30;;;;;;;31.60;20.07;;;8.10;99.90;;;;;;5063675;28;20481;-84
2024/02/12 06:00:57;;;;;;;27.20;17.50;;;8.00;99.90;;;;;;5062953;28;20951;-83
2024/02/12 06:03:24;;;;;;;32.60;18.80;;;8.00;99.90;;;;;;5059337;28;20455;-84
2024/02/12 06:05:52;;;;;;;30.23;19.43;;;7.90;99.90;;;;;;5061041;28;20453;-84
2024/02/12 06:08:19;;;;;;;32.30;19.90;;;8.00;99.90;;;;;;5064412;28;20535;-85
2024/02/12 06:10:46;;;;;;;32.93;18.03;;;8.00;99.90;;;;;;5063683;28;20925;-86
2024/02/12 06:13:13;;;;;;;34.50;18.53;;;8.10;99.90;;;;;;5062723;28;20829;-83
2024/02/12 06:15:40;;;;;;;27.97;16.60;;;8.10;99.90;;;;;;5055425;28;20508;-83
2024/02/12 06:18:07;;;;;;;31.30;16.60;;;8.20;99.90;;;;;;5050953;28;20525;-83
2024/02/12 06:20:34;;;;;;;29.77;17.87;;;8.20;99.90;;;;;;5065029;28;20546;-83
2024/02/12 06:23:02;;;;;;;26.57;16.93;;;8.30;99.90;;;;;;5067637;28;20459;-84
2024/02/12 06:25:29;;;;;;;30.80;18.17;;;8.20;99.90;;;;;;5067552;28;20467;-83
2024/02/12 06:27:57;;;;;;;30.03;17.50;;;8.10;99.90;;;;;;5068391;28;20529;-82
2024/02/12 06:30:24;;;;;;;28.53;16.23;;;7.90;99.90;;;;;;5065979;28;20543;-82
2024/02/12 06:32:51;;;;;;;27.57;16.47;;;7.80;99.90;;;;;;5067577;28;20460;-83
2024/02/12 06:35:18;;;;;;;25.20;15.60;;;4.60;99.90;;;;;;5065924;28;20536;-82
2024/02/12 06:37:46;;;;;;;28.10;16.53;;;7.80;99.90;;;;;;5068694;28;20472;-82
2024/02/12 06:40:14;;;;;;;25.50;15.77;;;7.80;99.90;;;;;;5070217;28;20474;-81
2024/02/12 06:42:42;;;;;;;27.87;15.90;;;7.90;99.90;;;;;;5073955;28;20479;-82
2024/02/12 06:45:09;;;;;;;28.00;15.60;;;8.10;99.90;;;;;;5074314;28;20453;-83
2024/02/12 06:47:36;;;;;;;28.50;15.53;;;8.10;99.90;;;;;;5056428;28;20486;-83
2024/02/12 06:50:05;;;;;;;32.00;16.27;;;8.30;99.90;;;;;;5059258;28;20493;-82
2024/02/12 06:52:33;;;;;;;31.50;17.10;;;8.30;99.90;;;;;;5063239;28;20493;-82
2024/02/12 06:55:00;;;;;;;38.03;23.80;;;8.30;99.90;;;;;;5060626;28;20552;-82
2024/02/12 06:57:28;;;;;;;31.97;19.67;;;8.60;99.90;;;;;;5062400;28;20485;-82
2024/02/12 06:59:55;;;;;;;37.50;17.67;;;8.40;99.90;;;;;;5061150;28;20463;-83
2024/02/12 07:02:22;;;;;;;26.23;15.40;;;8.00;99.90;;;;;;5068002;28;20458;-83
2024/02/12 07:04:48;;;;;;;29.20;16.23;;;8.60;99.90;;;;;;5068221;28;20519;-82
2024/02/12 07:07:16;;;;;;;31.00;15.30;;;8.40;99.90;;;;;;5066027;28;20481;-82
2024/02/12 07:09:42;;;;;;;26.47;15.67;;;8.50;99.90;;;;;;5068170;28;20453;-82
2024/02/12 07:12:09;;;;;;;28.10;15.43;;;8.50;99.90;;;;;;5068893;28;20463;-83
2024/02/12 07:14:38;;;;;;;29.80;16.13;;;8.50;99.90;;;;;;5065644;28;20520;-84
2024/02/12 07:17:06;;;;;;;27.33;16.17;;;8.50;99.90;;;;;;5064650;28;20474;-81
2024/02/12 07:19:33;;;;;;;35.33;17.20;;;8.50;99.90;;;;;;5068225;28;20463;-83
2024/02/12 07:22:00;;;;;;;34.23;16.83;;;8.60;99.90;;;;;;5058850;28;20511;-84
2024/02/12 07:24:27;;;;;;;33.17;18.40;;;8.60;99.90;;;;;;5066157;28;20453;-83
2024/02/12 07:26:54;;;;;;;28.80;17.63;;;8.60;99.90;;;;;;5060579;28;20825;-84
2024/02/12 07:29:21;;;;;;;25.53;15.90;;;8.60;99.90;;;;;;5060608;28;20490;-83
2024/02/12 07:31:49;;;;;;;34.30;19.07;;;8.50;99.90;;;;;;5061226;28;20908;-82
2024/02/12 07:34:16;;;;;;;29.70;16.93;;;8.50;99.90;;;;;;5066142;28;20479;-83
2024/02/12 07:36:44;;;;;;;32.97;19.00;;;8.60;99.90;;;;;;5063437;28;20467;-82
2024/02/12 07:39:12;;;;;;;38.67;18.13;;;8.60;99.90;;;;;;5065754;28;20466;-82
2024/02/12 07:41:40;;;;;;;26.83;16.80;;;8.70;99.90;;;;;;5064245;28;20906;-84
2024/02/12 07:44:10;;;;;;;27.27;17.63;;;8.70;99.90;;;;;;5066216;28;20451;-84
2024/02/12 07:46:38;;;;;;;34.70;20.00;;;8.70;99.90;;;;;;5059230;28;20456;-83
2024/02/12 07:49:06;;;;;;;31.07;18.17;;;8.70;99.90;;;;;;5056920;28;20483;-84
2024/02/12 07:51:33;;;;;;;30.27;17.47;;;8.80;99.90;;;;;;5065010;28;20807;-84
2024/02/12 07:54:00;;;;;;;32.30;19.20;;;8.80;99.90;;;;;;5063413;28;20491;-84
2024/02/12 07:56:27;;;;;;;34.13;19.30;;;8.90;99.90;;;;;;5070766;28;20573;-82
2024/02/12 07:58:54;;;;;;;31.30;18.60;;;8.90;99.90;;;;;;5072201;28;20451;-83
2024/02/12 08:01:21;;;;;;;40.67;20.10;;;8.80;99.90;;;;;;5072875;28;20466;-83
2024/02/12 08:03:48;;;;;;;35.00;19.60;;;8.70;99.90;;;;;;5072132;28;20478;-84
2024/02/12 08:06:17;;;;;;;30.03;20.27;;;8.60;99.90;;;;;;5073174;28;20458;-81
2024/02/12 08:08:44;;;;;;;32.40;20.23;;;8.70;99.90;;;;;;5070736;28;20833;-84
2024/02/12 08:11:11;;;;;;;32.03;19.20;;;8.70;99.90;;;;;;5065696;28;20508;-84
2024/02/12 08:13:38;;;;;;;40.23;20.73;;;8.80;99.90;;;;;;5065988;28;20526;-83
2024/02/12 08:16:08;;;;;;;43.23;21.50;;;8.80;99.90;;;;;;5068297;28;20550;-83
2024/02/12 08:18:36;;;;;;;37.90;22.27;;;8.80;99.90;;;;;;5069305;28;20497;-83
2024/02/12 08:21:03;;;;;;;33.03;20.87;;;8.90;99.90;;;;;;5069455;28;21188;-82
2024/02/12 08:23:31;;;;;;;35.47;20.83;;;9.00;99.90;;;;;;5070569;28;20471;-82
2024/02/12 08:25:58;;;;;;;40.20;22.67;;;9.10;99.90;;;;;;5066524;28;20454;-84
2024/02/12 08:28:25;;;;;;;35.53;21.00;;;9.10;99.90;;;;;;5069544;28;20534;-84
2024/02/12 08:30:52;;;;;;;29.60;20.43;;;9.10;99.90;;;;;;5070394;28;20505;-82
2024/02/12 08:33:18;;;;;;;37.20;21.57;;;9.00;99.90;;;;;;5070158;28;20926;-83
2024/02/12 08:35:46;;;;;;;33.17;22.13;;;9.10;99.90;;;;;;5069988;28;20493;-83
2024/02/12 08:38:13;;;;;;;36.40;22.07;;;9.00;99.90;;;;;;5070817;28;20459;-83
2024/02/12 08:40:41;;;;;;;39.30;22.20;;;8.90;99.90;;;;;;5075248;28;20498;-84
2024/02/12 08:43:08;;;;;;;32.13;21.00;;;8.80;99.90;;;;;;5073363;28;20443;-81
2024/02/12 08:45:35;;;;;;;36.70;21.00;;;8.70;99.90;;;;;;5076477;28;20493;-82
2024/02/12 08:48:02;;;;;;;34.40;19.07;;;8.80;99.90;;;;;;5064348;28;20454;-82
2024/02/12 08:50:29;;;;;;;41.37;22.23;;;9.00;99.90;;;;;;5069211;28;20506;-83
2024/02/12 08:52:56;;;;;;;35.60;20.57;;;9.10;99.90;;;;;;5053271;28;20454;-83
2024/02/12 08:55:22;;;;;;;32.33;19.30;;;9.20;99.90;;;;;;5066284;28;20514;-83
2024/02/12 08:57:52;;;;;;;39.90;20.57;;;9.20;99.90;;;;;;5069526;28;20519;-82
2024/02/12 09:00:21;;;;;;;35.40;18.53;;;9.30;99.90;;;;;;5065564;28;20507;-83
2024/02/12 09:02:48;;;;;;;31.00;19.23;;;9.20;99.90;;;;;;5069437;28;20455;-83
2024/02/12 09:05:16;;;;;;;30.43;19.10;;;9.20;99.90;;;;;;5069031;28;20515;-82
2024/02/12 09:07:43;;;;;;;35.20;19.43;;;9.20;99.90;;;;;;5070329;28;20535;-82
2024/02/12 09:10:12;;;;;;;32.13;17.93;;;9.20;99.90;;;;;;5069973;28;21096;-83
2024/02/12 09:12:39;;;;;;;29.17;19.13;;;9.30;99.90;;;;;;5069946;28;20884;-82
2024/02/12 09:15:10;;;;;;;28.20;17.30;;;9.30;99.90;;;;;;5062530;28;20484;-83
2024/02/12 09:17:37;;;;;;;26.70;17.70;;;9.20;99.90;;;;;;5065906;28;20459;-83
2024/02/12 09:20:07;;;;;;;29.90;18.53;;;9.30;99.90;;;;;;5068763;28;20940;-82
2024/02/12 09:22:34;;;;;;;33.80;19.63;;;9.30;99.90;;;;;;5069651;28;20475;-83
2024/02/12 09:25:03;;;;;;;38.30;20.83;;;9.30;99.90;;;;;;5069796;28;20451;-82
2024/02/12 09:27:29;;;;;;;36.93;20.63;;;9.30;99.90;;;;;;5068904;28;20893;-82
2024/02/12 09:29:57;;;;;;;29.77;17.50;;;9.20;99.90;;;;;;5069855;28;20534;-83
2024/02/12 09:32:26;;;;;;;29.10;18.70;;;9.20;99.90;;;;;;5070086;28;20471;-84
2024/02/12 09:34:55;;;;;;;34.30;19.60;;;9.30;99.90;;;;;;5069695;28;20458;-83
2024/02/12 09:37:27;;;;;;;35.10;19.20;;;9.20;99.90;;;;;;5069066;28;20471;-82
2024/02/12 09:39:54;;;;;;;31.90;19.13;;;9.20;99.90;;;;;;5070060;28;20591;-82
2024/02/12 09:42:22;;;;;;;31.07;18.37;;;9.30;99.90;;;;;;5069582;28;20459;-83
2024/02/12 09:44:50;;;;;;;33.60;17.80;;;9.40;99.90;;;;;;5068731;28;20487;-83
2024/02/12 09:47:17;;;;;;;30.20;17.87;;;9.40;99.90;;;;;;5068537;28;20443;-80
2024/02/12 09:49:45;;;;;;;29.17;18.73;;;9.40;99.90;;;;;;5057826;28;20459;-84
2024/02/12 09:52:13;;;;;;;31.40;18.33;;;9.30;99.90;;;;;;5070394;28;20458;-83
2024/02/12 09:54:41;;;;;;;35.53;17.80;;;9.30;99.90;;;;;;5069248;28;20487;-82
2024/02/12 09:57:09;;;;;;;34.07;19.70;;;9.20;99.90;;;;;;5067561;28;20929;-82
2024/02/12 09:59:36;;;;;;;28.70;17.30;;;9.10;99.90;;;;;;5066230;28;20463;-82
2024/02/12 10:02:06;;;;;;;30.13;18.87;;;8.90;99.90;;;;;;5051676;28;20503;-84
2024/02/12 10:04:34;;;;;;;25.50;15.60;;;8.90;99.90;;;;;;5066003;28;20451;-83
2024/02/12 10:07:05;;;;;;;29.30;15.90;;;8.90;99.90;;;;;;5053270;28;20457;-82
2024/02/12 10:09:32;;;;;;;25.77;14.80;;;8.90;99.90;;;;;;5062951;28;20492;-81
2024/02/12 10:12:06;;;;;;;25.17;13.43;;;8.90;99.90;;;;;;5067130;28;20466;-80
2024/02/12 10:14:33;;;;;;;29.07;15.33;;;8.90;99.90;;;;;;5068861;28;20512;-83
2024/02/12 10:17:01;;;;;;;19.47;13.67;;;9.00;99.90;;;;;;5069209;28;20857;-83
2024/02/12 10:19:28;;;;;;;26.47;14.40;;;9.20;99.90;;;;;;5063366;28;20455;-82
2024/02/12 10:21:55;;;;;;;19.47;12.03;;;9.20;99.90;;;;;;5064846;28;20486;-83
2024/02/12 10:24:23;;;;;;;19.13;10.00;;;9.10;99.90;;;;;;5062409;28;20443;-83
2024/02/12 10:26:50;;;;;;;16.53;10.80;;;9.10;99.90;;;;;;5061649;28;20913;-81
2024/02/12 10:29:18;;;;;;;13.80;9.30;;;9.00;99.90;;;;;;5064485;28;20492;-83
2024/02/12 10:31:46;;;;;;;13.70;8.80;;;9.00;99.90;;;;;;5061981;28;20463;-82
2024/02/12 10:34:16;;;;;;;13.83;10.10;;;9.00;99.90;;;;;;5061936;28;20454;-83
2024/02/12 10:36:47;;;;;;;12.10;9.37;;;9.00;99.90;;;;;;5064937;28;20487;-83
2024/02/12 10:39:17;;;;;;;13.23;8.47;;;8.90;99.90;;;;;;5061612;28;20469;-82
2024/02/12 10:41:50;;;;;;;14.37;10.17;;;8.90;99.90;;;;;;5059204;28;20842;-83
2024/02/12 10:44:18;;;;;;;12.50;9.23;;;9.00;99.90;;;;;;5061548;28;20528;-83
2024/02/12 10:46:46;;;;;;;13.73;10.37;;;9.10;99.90;;;;;;5060965;28;20581;-81
2024/02/12 10:49:14;;;;;;;17.27;11.67;;;9.30;99.90;;;;;;5061009;28;20464;-81
2024/02/12 10:51:42;;;;;;;22.40;12.70;;;9.30;99.90;;;;;;5063583;28;20501;-81
2024/02/12 10:54:09;;;;;;;19.13;12.30;;;9.50;99.90;;;;;;5064531;28;20481;-81
2024/02/12 10:56:37;;;;;;;17.00;12.27;;;9.90;99.90;;;;;;5060143;28;20477;-81
2024/02/12 10:59:05;;;;;;;18.23;13.20;;;10.30;99.90;;;;;;5067336;28;20498;-82
2024/02/12 11:01:32;;;;;;;16.50;12.67;;;10.70;99.90;;;;;;5063617;28;20498;-82
2024/02/12 11:04:01;;;;;;;20.80;12.83;;;11.30;99.90;;;;;;5063602;28;20575;-81
2024/02/12 11:06:28;;;;;;;19.40;13.07;;;11.30;99.90;;;;;;5064186;28;20473;-82
2024/02/12 11:08:56;;;;;;;21.10;11.33;;;11.20;99.90;;;;;;5062351;28;20451;-82
2024/02/12 11:11:29;;;;;;;17.20;10.77;;;10.90;99.90;;;;;;5063994;28;20464;-83
2024/02/12 11:14:02;;;;;;;19.57;12.90;;;11.00;99.90;;;;;;5060343;28;20449;-83
2024/02/12 11:16:32;;;;;;;16.97;12.90;;;10.70;99.90;;;;;;5061727;28;20511;-81
2024/02/12 11:19:01;;;;;;;17.73;11.77;;;10.70;99.90;;;;;;5064516;28;20452;-83
2024/02/12 11:21:35;;;;;;;17.70;13.20;;;10.70;99.90;;;;;;5063770;28;20486;-81
2024/02/12 11:24:07;;;;;;;17.00;12.40;;;10.80;99.90;;;;;;5058591;28;21009;-81
2024/02/12 11:26:35;;;;;;;22.10;13.40;;;10.90;99.90;;;;;;5061985;28;20463;-82
2024/02/12 11:29:05;;;;;;;20.40;14.50;;;11.00;99.90;;;;;;5062780;28;20456;-82
2024/02/12 11:31:37;;;;;;;20.93;12.83;;;11.10;99.90;;;;;;5065857;28;20469;-82
2024/02/12 11:34:11;;;;;;;13.23;10.47;;;11.30;99.90;;;;;;5059293;28;20460;-82
2024/02/12 11:36:38;;;;;;;17.83;11.37;;;11.40;99.90;;;;;;5069152;28;20479;-82
2024/02/12 11:39:07;;;;;;;18.33;12.93;;;11.30;99.90;;;;;;5071289;28;20459;-83
2024/02/12 11:41:34;;;;;;;15.87;11.20;;;11.20;99.90;;;;;;5064233;28;20493;-82
2024/02/12 11:44:05;;;;;;;15.20;10.67;;;11.20;99.90;;;;;;5065355;28;20449;-82
2024/02/12 11:46:35;;;;;;;15.43;9.67;;;11.40;99.90;;;;;;5063449;28;20464;-82
2024/02/12 11:49:06;;;;;;;17.83;10.30;;;11.70;99.90;;;;;;5069607;28;20443;-82
2024/02/12 11:51:34;;;;;;;16.53;10.80;;;11.60;99.90;;;;;;5064362;28;20479;-82
2024/02/12 11:54:01;;;;;;;13.53;9.53;;;11.50;99.90;;;;;;5064255;28;20474;-82
2024/02/12 11:56:28;;;;;;;16.27;9.20;;;11.40;99.90;;;;;;5057327;28;20548;-82
2024/02/12 11:58:56;;;;;;;11.53;8.10;;;11.40;99.90;;;;;;5062858;28;20482;-83
2024/02/12 12:01:23;;;;;;;11.63;8.23;;;11.40;99.90;;;;;;5063002;28;20460;-82
2024/02/12 12:03:52;;;;;;;12.97;8.33;;;11.40;99.90;;;;;;5062535;28;20837;-81
2024/02/12 12:06:21;;;;;;;11.93;7.67;;;11.80;99.90;;;;;;5058572;28;20449;-80
2024/02/12 12:08:49;;;;;;;9.70;7.73;;;12.90;99.90;;;;;;5061026;28;20438;-83
2024/02/12 12:11:20;;;;;;;11.17;7.63;;;13.40;99.90;;;;;;5071469;28;20473;-79
2024/02/12 12:13:46;;;;;;;14.90;7.67;;;13.20;99.90;;;;;;5060493;28;20434;-82
2024/02/12 12:16:15;;;;;;;10.20;7.40;;;12.70;99.90;;;;;;5062274;28;20510;-82
2024/02/12 12:18:42;;;;;;;10.03;7.60;;;12.50;99.90;;;;;;5062828;28;21094;-81
2024/02/12 12:21:10;;;;;;;11.20;8.57;;;12.30;99.90;;;;;;5068965;28;20468;-81
2024/02/12 12:23:37;;;;;;;12.50;8.50;;;12.20;99.90;;;;;;5065608;28;20496;-80
2024/02/12 12:26:04;;;;;;;13.37;8.70;;;12.00;99.90;;;;;;5067958;28;20480;-82
2024/02/12 12:28:32;;;;;;;14.07;9.97;;;12.40;99.90;;;;;;5062155;28;20457;-82
2024/02/12 12:31:01;;;;;;;18.97;10.50;;;13.40;99.90;;;;;;5061909;28;20550;-84
2024/02/12 12:33:28;;;;;;;20.03;11.23;;;13.50;99.90;;;;;;5061031;28;20454;-82
2024/02/12 12:35:58;;;;;;;16.60;11.90;;;13.60;99.90;;;;;;5062639;28;20492;-82
2024/02/12 12:38:26;;;;;;;17.10;13.10;;;13.60;99.90;;;;;;5059446;28;20811;-83
2024/02/12 12:40:54;;;;;;;17.40;11.83;;;13.60;99.90;;;;;;5061959;28;20499;-82
2024/02/12 12:43:20;;;;;;;13.40;10.83;;;14.00;99.90;;;;;;5060844;28;20453;-81
2024/02/12 12:45:47;;;;;;;12.47;9.73;;;14.80;99.90;;;;;;5062327;28;20453;-79
2024/02/12 12:48:15;;;;;;;14.03;10.10;;;15.80;99.90;;;;;;5070020;28;20498;-81
2024/02/12 12:50:43;;;;;;;10.43;8.97;;;16.50;99.90;;;;;;5069635;28;20563;-82
2024/02/12 12:53:10;;;;;;;12.53;8.30;;;16.40;99.90;;;;;;5068907;28;20448;-82
2024/02/12 12:55:38;;;;;;;8.23;6.40;;;16.70;99.90;;;;;;5066984;28;20609;-83
2024/02/12 12:58:05;;;;;;;7.17;6.13;;;16.50;99.90;;;;;;5067636;28;20559;-83